createdAt,value
2023-01-04T03:24:25.706Z,102709.75
2023-01-04T03:27:18.605Z,102694.38
2023-01-04T03:30:23.334Z,102692.97
2023-01-04T03:33:24.440Z,102700.13
2023-01-04T03:36:25.515Z,102692.34
2023-01-04T03:39:36.723Z,102696.00
2023-01-04T03:43:06.138Z,102700.91
2023-01-04T03:45:58.996Z,102704.34
2023-01-04T03:48:38.459Z,102698.28
2023-01-04T03:51:34.949Z,102704.97
2023-01-04T03:54:12.108Z,102708.31
2023-01-04T03:56:42.228Z,102705.06
2023-01-04T03:59:11.050Z,102700.03
2023-01-04T04:01:40.226Z,102704.28
2023-01-04T04:04:26.395Z,102705.97
2023-01-04T04:07:12.814Z,102702.28
2023-01-04T04:09:40.328Z,102691.69
2023-01-04T04:12:07.700Z,102676.78
2023-01-04T04:14:35.182Z,102686.06
2023-01-04T04:17:02.640Z,102682.69
2023-01-04T04:19:30.127Z,102686.09
2023-01-04T04:21:57.570Z,102691.25
2023-01-04T04:24:26.645Z,102692.50
2023-01-04T04:26:55.726Z,102688.41
2023-01-04T04:29:24.364Z,102685.03
2023-01-04T04:31:52.000Z,102692.16
2023-01-04T04:34:19.417Z,102691.22
2023-01-04T04:36:47.814Z,102689.78
2023-01-04T04:39:15.226Z,102694.34
2023-01-04T04:41:42.593Z,102702.44
2023-01-04T04:44:11.751Z,102699.03
2023-01-04T04:46:40.015Z,102708.91
2023-01-04T04:49:08.342Z,102697.44
2023-01-04T04:51:36.848Z,102704.16
2023-01-04T04:54:05.731Z,102709.75
2023-01-04T04:56:33.795Z,102710.13
2023-01-04T04:59:01.112Z,102714.00
2023-01-04T05:01:28.691Z,102708.16
2023-01-04T05:03:56.812Z,102702.94
2023-01-04T05:06:24.360Z,102705.75
2023-01-04T05:08:51.726Z,102709.56
2023-01-04T05:11:39.453Z,102705.56
2023-01-04T05:14:06.803Z,102718.13
2023-01-04T05:16:34.341Z,102721.84
2023-01-04T05:19:02.016Z,102724.19
2023-01-04T05:21:29.420Z,102729.66
2023-01-04T05:23:56.784Z,102722.19
2023-01-04T05:26:24.808Z,102715.47
2023-01-04T05:28:54.164Z,102711.03
2023-01-04T05:31:22.154Z,102714.19
2023-01-04T05:33:49.690Z,102722.19
2023-01-04T05:36:17.062Z,102723.34
2023-01-04T05:38:44.838Z,102719.22
2023-01-04T05:41:30.945Z,102714.84
2023-01-04T05:43:58.761Z,102715.22
2023-01-04T05:46:26.197Z,102710.38
2023-01-04T05:48:54.437Z,102716.16
2023-01-04T05:51:21.826Z,102723.72
2023-01-04T05:53:49.546Z,102728.19
2023-01-04T05:56:16.819Z,102732.94
2023-01-04T05:58:44.187Z,102738.66
2023-01-04T06:01:11.576Z,102738.09
2023-01-04T06:03:39.019Z,102742.22
2023-01-04T06:06:06.580Z,102736.81
2023-01-04T06:08:33.972Z,102729.63
2023-01-04T06:11:01.319Z,102729.03
2023-01-04T06:13:28.626Z,102727.59
2023-01-04T06:15:56.090Z,102723.75
2023-01-04T06:18:23.833Z,102729.91
2023-01-04T06:20:51.689Z,102729.41
2023-01-04T06:23:19.032Z,102729.63
2023-01-04T06:25:46.376Z,102726.75
2023-01-04T06:28:13.840Z,102727.44
2023-01-04T06:30:41.336Z,102729.47
2023-01-04T06:33:08.985Z,102730.34
2023-01-04T06:35:36.569Z,102733.84
2023-01-04T06:38:04.027Z,102727.22
2023-01-04T06:40:31.708Z,102738.59
2023-01-04T06:42:59.032Z,102741.53
2023-01-04T06:45:26.375Z,102735.16
2023-01-04T06:47:54.035Z,102734.06
2023-01-04T06:50:21.782Z,102757.69
2023-01-04T06:52:49.251Z,102746.81
2023-01-04T06:55:16.657Z,102754.53
2023-01-04T06:57:44.451Z,102762.84
2023-01-04T07:00:12.686Z,102760.97
2023-01-04T07:02:40.123Z,102770.97
2023-01-04T07:05:27.482Z,102766.53
2023-01-04T07:07:54.849Z,102756.50
2023-01-04T07:10:22.174Z,102758.53
2023-01-04T07:12:50.525Z,102762.81
2023-01-04T07:15:38.731Z,102760.66
2023-01-04T07:18:05.522Z,102765.88
2023-01-04T07:20:33.327Z,102765.63
2023-01-04T07:23:01.072Z,102768.81
2023-01-04T07:25:28.611Z,102772.66
2023-01-04T07:27:56.135Z,102773.13
2023-01-04T07:30:24.246Z,102772.59
2023-01-04T07:32:52.787Z,102771.84
2023-01-04T07:35:20.485Z,102775.09
2023-01-04T07:37:53.767Z,102775.94
2023-01-04T07:40:25.721Z,102773.81
2023-01-04T07:42:57.658Z,102776.59
2023-01-04T07:45:26.143Z,102774.34
2023-01-04T07:47:53.922Z,102779.19
2023-01-04T07:50:21.436Z,102773.56
2023-01-04T07:52:48.762Z,102768.59
2023-01-04T07:55:16.132Z,102772.75
2023-01-04T07:57:43.934Z,102776.28
2023-01-04T08:00:12.051Z,102781.81
2023-01-04T08:02:39.424Z,102781.63
2023-01-04T08:05:07.248Z,102783.56
2023-01-04T08:07:34.607Z,102786.13
2023-01-04T08:10:01.955Z,102786.25
2023-01-04T08:12:29.802Z,102792.91
2023-01-04T08:14:57.170Z,102794.97
2023-01-04T08:17:24.510Z,102797.78
2023-01-04T08:19:51.856Z,102805.19
2023-01-04T08:22:19.257Z,102800.16
2023-01-04T08:24:46.658Z,102809.06
2023-01-04T08:27:14.235Z,102806.88
2023-01-04T08:29:43.402Z,102809.31
2023-01-04T08:32:10.908Z,102808.22
2023-01-04T08:34:38.243Z,102804.16
2023-01-04T08:37:05.570Z,102812.47
2023-01-04T08:39:36.033Z,102813.22
2023-01-04T08:42:18.065Z,102804.22
2023-01-04T08:44:47.971Z,102813.63
2023-01-04T08:47:15.753Z,102824.91
2023-01-04T08:49:43.156Z,102819.31
2023-01-04T08:52:11.789Z,102816.81
2023-01-04T08:54:39.662Z,102832.22
2023-01-04T08:57:06.956Z,102832.84
2023-01-04T08:59:34.301Z,102828.97
2023-01-04T09:02:05.733Z,102832.63
2023-01-04T09:04:34.052Z,102830.66
2023-01-04T09:07:02.008Z,102825.72
2023-01-04T09:09:30.240Z,102832.13
2023-01-04T09:11:59.687Z,102831.47
2023-01-04T09:14:27.205Z,102834.47
2023-01-04T09:16:54.760Z,102844.97
2023-01-04T09:19:22.716Z,102834.63
2023-01-04T09:21:50.386Z,102837.88
2023-01-04T09:24:18.036Z,102836.09
2023-01-04T09:26:47.411Z,102838.38
2023-01-04T09:29:14.880Z,102837.53
2023-01-04T09:31:42.925Z,102841.97
2023-01-04T09:34:15.221Z,102840.69
2023-01-04T09:36:48.883Z,102837.44
2023-01-04T09:39:23.054Z,102837.28
2023-01-04T09:41:59.658Z,102844.53
2023-01-04T09:47:44.442Z,102831.84
2023-01-04T09:50:24.509Z,102826.13
2023-01-04T09:53:10.544Z,102822.78
2023-01-04T09:55:48.799Z,102831.00
2023-01-04T09:58:22.086Z,102827.13
2023-01-04T10:01:03.051Z,102821.78
2023-01-04T10:03:36.751Z,102815.63
2023-01-04T10:06:09.240Z,102817.41
2023-01-04T10:08:36.691Z,102814.34
2023-01-04T10:11:25.527Z,102814.75
2023-01-04T10:14:13.025Z,102815.50
2023-01-04T10:17:12.730Z,102807.78
2023-01-04T10:23:04.363Z,102800.59
2023-01-04T10:26:03.344Z,102816.78
2023-01-04T10:28:33.955Z,102802.47
2023-01-04T10:31:40.811Z,102800.63
2023-01-04T10:34:39.191Z,102792.53
2023-01-04T10:37:18.863Z,102794.91
2023-01-04T10:39:51.822Z,102792.66
2023-01-04T10:42:31.523Z,102791.75
2023-01-04T10:45:31.293Z,102791.47
2023-01-04T10:48:20.893Z,102786.59
2023-01-04T10:51:05.006Z,102784.94
2023-01-04T10:53:53.193Z,102780.13
2023-01-04T10:56:24.254Z,102771.00
2023-01-04T10:59:05.947Z,102778.06
2023-01-04T11:01:45.327Z,102772.13
2023-01-04T11:04:38.286Z,102768.47
2023-01-04T11:07:21.033Z,102755.88
2023-01-04T11:09:58.293Z,102758.53
2023-01-04T11:12:26.335Z,102745.38
2023-01-04T11:14:54.065Z,102739.31
2023-01-04T11:17:24.511Z,102736.31
2023-01-04T11:19:53.318Z,102736.50
2023-01-04T11:22:28.224Z,102738.38
2023-01-04T11:28:12.515Z,102720.38
2023-01-04T11:30:54.572Z,102711.41
2023-01-04T11:33:24.868Z,102723.47
2023-01-04T11:35:59.031Z,102713.28
2023-01-04T11:38:29.484Z,102710.78
2023-01-04T11:41:06.359Z,102715.78
2023-01-04T11:43:39.462Z,102716.84
2023-01-04T11:46:15.570Z,102718.56
2023-01-04T11:48:45.317Z,102714.19
2023-01-04T11:51:28.757Z,102715.44
2023-01-04T11:54:17.292Z,102708.59
2023-01-04T11:57:10.775Z,102704.88
2023-01-04T11:59:39.675Z,102697.94
2023-01-04T12:02:59.606Z,102695.59
2023-01-04T12:05:28.987Z,102696.44
2023-01-04T12:07:58.678Z,102682.28
2023-01-04T12:10:28.440Z,102679.66
2023-01-04T12:12:59.791Z,102672.88
2023-01-04T12:15:55.328Z,102663.22
2023-01-04T12:18:49.667Z,102672.06
2023-01-04T12:21:21.971Z,102673.16
2023-01-04T12:23:50.413Z,102676.44
2023-01-04T12:26:19.397Z,102661.44
2023-01-04T12:28:49.426Z,102664.00
2023-01-04T12:31:20.610Z,102656.75
2023-01-04T12:33:56.200Z,102649.13
2023-01-04T12:36:38.716Z,102635.19
2023-01-04T12:39:13.882Z,102642.28
2023-01-04T12:41:41.709Z,102640.72
2023-01-04T12:44:37.532Z,102641.19
2023-01-04T12:47:36.314Z,102639.97
2023-01-04T12:50:18.696Z,102644.16
2023-01-04T12:53:29.606Z,102635.41
2023-01-04T12:55:45.615Z,102633.78
2023-01-04T12:59:06.750Z,102634.19
2023-01-04T13:01:29.447Z,102616.59
2023-01-04T13:04:06.181Z,102615.66
2023-01-04T13:06:42.801Z,102601.19
2023-01-04T13:09:23.995Z,102600.25
2023-01-04T13:12:15.352Z,102592.88
2023-01-04T13:14:48.969Z,102600.25
2023-01-04T13:17:20.377Z,102592.13
2023-01-04T13:19:49.170Z,102592.63
2023-01-04T13:22:30.126Z,102591.22
2023-01-04T13:24:59.988Z,102593.69
2023-01-04T13:27:28.142Z,102589.59
2023-01-04T13:29:55.921Z,102590.50
2023-01-04T13:32:29.233Z,102584.69
2023-01-04T13:35:14.960Z,102586.31
2023-01-04T13:37:45.584Z,102585.22
2023-01-04T13:40:24.150Z,102586.16
2023-01-04T13:43:17.739Z,102579.00
2023-01-04T13:46:06.895Z,102581.78
2023-01-04T13:48:37.581Z,102590.34
2023-01-04T13:51:11.443Z,102582.50
2023-01-04T13:53:39.217Z,102585.78
2023-01-04T13:56:22.572Z,102576.34
2023-01-04T13:58:51.665Z,102568.88
2023-01-04T14:01:29.314Z,102576.19
2023-01-04T14:04:00.872Z,102569.75
2023-01-04T14:06:44.362Z,102568.41
2023-01-04T14:09:13.492Z,102573.16
2023-01-04T14:12:05.738Z,102562.47
2023-01-04T14:15:00.762Z,102565.00
2023-01-04T14:17:31.627Z,102561.44
2023-01-04T14:20:05.429Z,102561.75
2023-01-04T14:22:34.404Z,102563.06
2023-01-04T14:25:30.785Z,102561.44
2023-01-04T14:28:24.550Z,102572.00
2023-01-04T14:30:56.584Z,102564.28
2023-01-04T14:33:39.589Z,102561.00
2023-01-04T14:36:10.042Z,102564.31
2023-01-04T14:38:44.352Z,102565.53
2023-01-04T14:41:21.166Z,102564.31
2023-01-04T14:43:54.636Z,102560.41
2023-01-04T14:46:23.405Z,102562.56
2023-01-04T14:48:51.247Z,102552.88
2023-01-04T14:51:23.082Z,102555.34
2023-01-04T14:53:51.161Z,102557.53
2023-01-04T14:56:18.942Z,102556.28
2023-01-04T14:58:46.344Z,102569.75
2023-01-04T15:01:13.889Z,102557.69
2023-01-04T15:03:41.415Z,102561.72
2023-01-04T15:06:10.544Z,102558.06
2023-01-04T15:08:38.066Z,102548.03
2023-01-04T15:11:05.532Z,102553.47
2023-01-04T15:13:39.081Z,102558.22
2023-01-04T15:16:10.517Z,102549.88
2023-01-04T15:18:37.976Z,102547.47
2023-01-04T15:21:05.568Z,102545.16
2023-01-04T15:23:33.292Z,102546.69
2023-01-04T15:26:03.297Z,102549.81
2023-01-04T15:28:30.670Z,102543.03
2023-01-04T15:30:58.813Z,102543.75
2023-01-04T15:33:32.301Z,102542.59
2023-01-04T15:36:01.654Z,102534.88
2023-01-04T15:38:29.041Z,102530.03
2023-01-04T15:41:05.450Z,102528.19
2023-01-04T15:43:38.985Z,102516.84
2023-01-04T15:46:08.983Z,102523.75
2023-01-04T15:48:36.600Z,102528.06
2023-01-04T15:51:07.741Z,102521.25
2023-01-04T15:53:35.779Z,102524.44
2023-01-04T15:56:08.788Z,102524.34
2023-01-04T15:58:36.344Z,102517.69
2023-01-04T16:01:14.689Z,102506.03
2023-01-04T16:03:43.588Z,102520.06
2023-01-04T16:06:17.045Z,102507.88
2023-01-04T16:08:47.439Z,102508.38
2023-01-04T16:11:17.583Z,102513.66
2023-01-04T16:13:48.806Z,102500.47
2023-01-04T16:16:17.212Z,102499.94
2023-01-04T16:18:50.335Z,102509.19
2023-01-04T16:21:24.060Z,102497.66
2023-01-04T16:24:04.529Z,102495.34
2023-01-04T16:26:35.390Z,102492.91
2023-01-04T16:29:02.965Z,102491.41
2023-01-04T16:31:35.744Z,102498.81
2023-01-04T16:34:04.764Z,102501.44
2023-01-04T16:36:33.140Z,102497.59
2023-01-04T16:39:01.742Z,102501.91
2023-01-04T16:41:29.367Z,102499.19
2023-01-04T16:44:00.525Z,102498.66
2023-01-04T16:46:31.185Z,102503.09
2023-01-04T16:49:05.618Z,102516.50
2023-01-04T16:51:35.341Z,102511.69
2023-01-04T16:54:05.533Z,102513.41
2023-01-04T16:56:33.682Z,102519.06
2023-01-04T16:59:04.441Z,102512.41
2023-01-04T17:01:34.467Z,102508.50
2023-01-04T17:04:04.315Z,102513.03
2023-01-04T17:06:35.075Z,102509.53
2023-01-04T17:09:05.249Z,102514.13
2023-01-04T17:14:25.138Z,102511.25
2023-01-04T17:16:53.573Z,102506.34
2023-01-04T17:19:21.669Z,102495.44
2023-01-04T17:21:49.785Z,102504.94
2023-01-04T17:24:17.850Z,102497.63
2023-01-04T17:26:45.700Z,102496.16
2023-01-04T17:29:14.862Z,102498.47
2023-01-04T17:31:44.916Z,102497.91
2023-01-04T17:34:21.921Z,102492.19
2023-01-04T17:36:50.461Z,102498.31
2023-01-04T17:39:20.844Z,102487.25
2023-01-04T17:41:48.426Z,102490.56
2023-01-04T17:44:15.846Z,102481.94
2023-01-04T17:46:43.729Z,102487.06
2023-01-04T17:49:31.776Z,102480.75
2023-01-04T17:52:00.549Z,102477.31
2023-01-04T17:54:28.047Z,102477.97
2023-01-04T17:56:55.732Z,102477.16
2023-01-04T17:59:23.812Z,102478.97
2023-01-04T18:01:51.669Z,102482.94
2023-01-04T18:04:19.084Z,102473.72
2023-01-04T18:06:46.934Z,102467.91
2023-01-04T18:09:18.498Z,102459.75
2023-01-04T18:11:50.928Z,102451.09
2023-01-04T18:14:19.941Z,102457.66
2023-01-04T18:16:57.374Z,102452.03
2023-01-04T18:19:27.541Z,102466.59
2023-01-04T18:21:55.592Z,102450.75
2023-01-04T18:24:36.268Z,102449.13
2023-01-04T18:27:24.311Z,102444.47
2023-01-04T18:29:54.157Z,102442.75
2023-01-04T18:32:23.033Z,102445.22
2023-01-04T18:34:50.409Z,102434.72
2023-01-04T18:37:18.775Z,102442.53
2023-01-04T18:39:48.657Z,102440.44
2023-01-04T18:42:16.989Z,102450.69
2023-01-04T18:44:49.118Z,102450.19
2023-01-04T18:47:19.841Z,102454.19
2023-01-04T18:49:48.623Z,102458.50
2023-01-04T18:52:17.189Z,102459.44
2023-01-04T18:54:45.071Z,102461.75
2023-01-04T18:57:12.537Z,102471.22
2023-01-04T18:59:41.411Z,102459.13
2023-01-04T19:02:15.581Z,102462.09
2023-01-04T19:04:43.093Z,102464.63
2023-01-04T19:07:10.529Z,102457.28
2023-01-04T19:09:39.531Z,102456.66
2023-01-04T19:12:06.962Z,102459.38
2023-01-04T19:14:35.096Z,102457.31
2023-01-04T19:17:02.867Z,102457.66
2023-01-04T19:19:30.631Z,102443.50
2023-01-04T19:21:58.640Z,102445.25
2023-01-04T19:24:26.113Z,102446.13
2023-01-04T19:26:55.509Z,102443.03
2023-01-04T19:29:26.930Z,102440.00
2023-01-04T19:31:56.949Z,102420.59
2023-01-04T19:34:24.528Z,102428.75
2023-01-04T19:36:52.403Z,102426.47
2023-01-04T19:39:19.753Z,102421.97
2023-01-04T19:41:47.109Z,102430.50
2023-01-04T19:44:16.130Z,102429.94
2023-01-04T19:46:43.924Z,102436.84
2023-01-04T19:49:15.255Z,102444.00
2023-01-04T19:51:46.390Z,102444.16
2023-01-04T19:54:14.400Z,102444.69
2023-01-04T19:56:43.350Z,102450.34
2023-01-04T19:59:10.676Z,102451.88
2023-01-04T20:01:39.471Z,102451.19
2023-01-04T20:04:06.877Z,102453.22
2023-01-04T20:06:34.342Z,102454.13
2023-01-04T20:09:01.762Z,102446.69
2023-01-04T20:11:30.104Z,102446.84
2023-01-04T20:13:57.730Z,102448.84
2023-01-04T20:16:26.073Z,102450.06
2023-01-04T20:18:57.902Z,102453.84
2023-01-04T20:21:25.891Z,102449.00
2023-01-04T20:23:53.460Z,102452.41
2023-01-04T20:26:20.947Z,102451.84
2023-01-04T20:28:48.729Z,102443.25
2023-01-04T20:31:18.261Z,102447.25
2023-01-04T20:33:47.583Z,102444.13
2023-01-04T20:36:18.924Z,102447.59
2023-01-04T20:38:48.195Z,102444.69
2023-01-04T20:41:17.963Z,102442.19
2023-01-04T20:43:47.281Z,102436.59
2023-01-04T20:46:23.561Z,102431.84
2023-01-04T20:48:51.880Z,102429.81
2023-01-04T20:51:21.894Z,102422.94
2023-01-04T20:53:50.061Z,102423.38
2023-01-04T20:56:19.723Z,102420.09
2023-01-04T20:58:47.933Z,102421.44
2023-01-04T21:01:17.424Z,102424.00
2023-01-04T21:03:45.974Z,102417.06
2023-01-04T21:06:16.011Z,102417.97
2023-01-04T21:08:44.766Z,102410.03
2023-01-04T21:11:13.337Z,102413.38
2023-01-04T21:13:41.346Z,102406.69
2023-01-04T21:16:10.264Z,102402.81
2023-01-04T21:18:38.214Z,102402.00
2023-01-04T21:21:14.491Z,102410.28
2023-01-04T21:23:43.495Z,102418.81
2023-01-04T21:26:17.401Z,102422.84
2023-01-04T21:28:46.287Z,102436.72
2023-01-04T21:31:21.274Z,102426.63
2023-01-04T21:33:48.730Z,102436.72
2023-01-04T21:36:19.169Z,102433.59
2023-01-04T21:38:54.417Z,102426.31
2023-01-04T21:41:25.190Z,102421.59
2023-01-04T21:43:55.175Z,102415.41
2023-01-04T21:46:24.061Z,102412.88
2023-01-04T21:48:56.706Z,102405.13
2023-01-04T21:51:24.305Z,102411.47
2023-01-04T21:53:52.032Z,102414.34
2023-01-04T21:56:21.953Z,102406.59
2023-01-04T21:58:50.652Z,102413.63
2023-01-04T22:01:20.695Z,102414.94
2023-01-04T22:03:48.385Z,102410.34
2023-01-04T22:06:16.515Z,102408.03
2023-01-04T23:33:39.065Z,102343.97
2023-01-04T23:36:27.295Z,102343.09
2023-01-04T23:38:57.320Z,102338.19
2023-01-04T23:41:44.138Z,102337.75
2023-01-04T23:44:32.250Z,102328.91
2023-01-04T23:47:02.418Z,102331.00
2023-01-04T23:49:32.344Z,102327.28
2023-01-04T23:52:00.854Z,102323.63
2023-01-04T23:54:29.241Z,102311.22
2023-01-04T23:56:56.992Z,102316.97
2023-01-04T23:59:25.536Z,102310.75
